SAST,Max TemperatureF,Mean TemperatureF,Min TemperatureF,Max Dew PointF,MeanDew PointF,Min DewpointF,Max Humidity, Mean Humidity, Min Humidity, Max Sea Level PressureIn, Mean Sea Level PressureIn, Min Sea Level PressureIn, Max VisibilityMiles, Mean VisibilityMiles, Min VisibilityMiles, Max Wind SpeedMPH, Mean Wind SpeedMPH, Max Gust SpeedMPH,PrecipitationIn, CloudCover, Events, WindDirDegrees
2011-12-1,71,66,62,63,61,54,100,88,53,30.15,30.04,29.95,6,6,1,15,7,,0.00,5,Fog,120
2011-12-2,71,64,57,63,59,57,100,87,64,30.15,30.07,30.01,6,6,1,14,4,,0.00,5,Fog-Rain,147
2011-12-3,69,63,57,59,57,54,94,83,56,30.18,30.17,30.12,6,6,6,15,9,,0.00,4,,177
2011-12-4,73,65,57,63,58,55,94,80,60,30.15,29.95,29.77,6,6,6,13,8,,0.00,1,,104
2011-12-5,91,76,60,64,60,50,100,74,29,29.89,29.72,29.65,6,6,5,20,5,,0.00,3,Rain-Thunderstorm,267
2011-12-6,71,66,60,63,61,59,100,81,68,29.89,29.85,29.83,6,6,6,12,5,,0.00,5,,195
2011-12-7,69,64,59,63,59,55,100,83,60,30.04,29.88,29.80,6,6,6,15,6,,0.00,6,,244
2011-12-8,62,58,51,55,49,41,94,73,45,30.21,30.15,30.06,6,6,4,20,12,,0.00,5,,262
2011-12-9,68,58,48,59,51,45,94,77,56,30.21,30.04,29.92,6,6,6,29,10,38,0.00,2,,88
2011-12-10,69,61,53,59,56,54,100,85,60,29.95,29.90,29.86,6,6,3,14,8,,0.00,5,Rain,260
2011-12-11,71,62,53,55,52,46,88,70,41,29.92,29.86,29.83,6,6,6,26,11,39,0.00,4,,280
2011-12-12,71,65,59,63,60,57,100,89,69,29.89,29.84,29.77,6,6,2,16,12,,0.00,5,Rain,258
2011-12-13,69,61,53,63,60,54,100,87,78,29.77,29.71,29.65,6,6,6,12,5,,0.00,4,,155
2011-12-14,66,60,51,59,53,46,94,81,68,29.92,29.80,29.74,6,6,6,16,7,,0.00,4,Rain,253
2011-12-15,71,61,51,55,47,39,88,61,31,30.06,29.98,29.92,6,6,6,20,8,,0.00,1,,272
2011-12-16,69,61,53,59,55,52,94,78,60,30.12,30.07,30.04,6,6,6,14,5,,0.00,2,,117
2011-12-17,77,65,53,66,59,52,100,77,54,30.09,29.95,29.86,6,6,6,9,4,,0.00,1,,168
2011-12-18,73,66,59,64,61,55,100,83,65,29.95,29.86,29.77,6,6,6,10,4,,0.00,4,,204
2011-12-19,68,64,59,64,59,54,100,81,60,30.12,30.01,29.86,6,6,5,21,9,,0.00,5,,239
2011-12-20,73,62,51,64,58,50,94,80,56,30.06,29.92,29.80,6,6,6,12,5,,0.00,3,,106
2011-12-21,73,68,62,64,60,57,94,81,69,29.89,29.85,29.83,6,6,6,13,7,,0.00,7,,245
2011-12-22,77,68,59,59,56,54,88,71,44,30.06,29.88,29.80,6,6,4,18,6,,0.00,5,Rain,255
2011-12-23,69,63,57,59,55,52,100,76,56,30.12,30.09,30.06,6,6,6,15,8,,0.00,6,,101
2011-12-24,75,67,59,63,59,55,94,79,57,30.09,30.01,29.92,6,6,6,20,8,,0.00,3,,107
2011-12-25,73,68,64,68,65,61,100,90,69,30.01,29.93,29.89,6,5,1,20,8,,0.00,6,,107
2011-12-26,78,73,68,72,69,68,100,89,74,29.92,29.87,29.83,6,6,0,13,7,,0.00,5,Fog-Rain,233
2011-12-27,73,70,66,68,66,64,100,91,78,30.06,29.97,29.89,6,6,1,13,9,,0.00,6,Rain,245
2011-12-28,73,68,60,66,64,59,100,90,65,30.09,30.06,30.04,6,6,3,15,6,,0.00,5,Rain,122
2011-12-29,71,64,57,64,61,57,100,88,69,30.09,30.03,29.95,6,6,6,12,5,,0.00,4,,73
2011-12-30,71,66,62,63,61,59,100,84,64,30.04,29.96,29.92,6,6,6,13,5,,0.00,5,,221
2011-12-31,71,65,59,61,58,54,100,78,53,30.04,29.99,29.95,6,6,6,15,5,,0.00,3,,159